createdAt,value
2018-09-29T00:00:07.756Z,22.30
2018-09-29T00:01:10.793Z,22.30
2018-09-29T00:02:13.851Z,22.20
2018-09-29T00:03:16.980Z,22.20
2018-09-29T00:04:19.945Z,22.20
2018-09-29T00:05:23.059Z,22.20
2018-09-29T00:06:26.275Z,22.20
2018-09-29T00:07:29.442Z,22.20
2018-09-29T00:08:32.471Z,22.20
2018-09-29T00:09:35.595Z,22.20
2018-09-29T00:10:38.764Z,22.20
2018-09-29T00:11:41.813Z,22.20
2018-09-29T00:12:44.798Z,22.20
2018-09-29T00:13:47.964Z,22.20
2018-09-29T00:14:50.974Z,24.40
2018-09-29T00:15:54.039Z,22.20
2018-09-29T00:16:57.077Z,22.20
2018-09-29T00:18:00.079Z,22.20
2018-09-29T00:19:03.187Z,22.20
2018-09-29T00:20:06.488Z,22.20
2018-09-29T00:21:09.536Z,22.20
2018-09-29T00:22:12.590Z,22.20
2018-09-29T00:23:15.798Z,22.20
2018-09-29T00:24:18.909Z,22.20
2018-09-29T00:25:21.974Z,22.20
2018-09-29T00:26:24.975Z,22.20
2018-09-29T00:27:28.025Z,22.20
2018-09-29T00:28:31.052Z,22.20
2018-09-29T00:29:34.083Z,22.20
2018-09-29T00:30:37.104Z,22.20
2018-09-29T00:31:40.175Z,22.20
2018-09-29T00:32:43.262Z,22.10
2018-09-29T00:33:46.279Z,22.10
2018-09-29T00:34:49.327Z,22.20
2018-09-29T00:35:52.342Z,22.20
2018-09-29T00:36:55.527Z,22.10
2018-09-29T00:37:58.609Z,22.20
2018-09-29T00:39:01.731Z,22.20
2018-09-29T00:40:04.793Z,22.10
2018-09-29T00:41:07.995Z,22.10
2018-09-29T00:42:11.026Z,22.10
2018-09-29T00:43:14.133Z,22.10
2018-09-29T00:44:17.158Z,22.10
2018-09-29T00:45:20.159Z,22.00
2018-09-29T00:46:23.227Z,21.90
2018-09-29T00:47:26.254Z,22.00
2018-09-29T00:48:29.335Z,22.00
2018-09-29T00:49:32.323Z,22.00
2018-09-29T00:50:35.398Z,22.00
2018-09-29T00:51:38.389Z,22.00
2018-09-29T00:52:41.502Z,22.00
2018-09-29T00:53:44.525Z,22.00
2018-09-29T00:54:47.598Z,22.00
2018-09-29T00:55:50.652Z,22.10
2018-09-29T00:56:53.695Z,22.00
2018-09-29T00:57:56.756Z,22.10
2018-09-29T00:58:59.807Z,22.10
2018-09-29T01:00:02.886Z,22.10
2018-09-29T01:01:06.326Z,22.10
2018-09-29T01:02:09.397Z,22.10
2018-09-29T01:03:12.415Z,22.10
2018-09-29T01:04:15.584Z,22.10
2018-09-29T01:05:18.602Z,22.10
2018-09-29T01:06:21.654Z,22.10
2018-09-29T01:07:24.723Z,22.10
2018-09-29T01:08:27.864Z,22.10
2018-09-29T01:09:30.958Z,22.00
2018-09-29T01:10:34.031Z,22.10
2018-09-29T01:11:37.106Z,22.10
2018-09-29T01:12:40.151Z,22.00
2018-09-29T01:13:43.180Z,22.00
2018-09-29T01:14:46.275Z,22.10
2018-09-29T01:15:49.280Z,22.00
2018-09-29T01:16:52.262Z,22.10
2018-09-29T01:17:55.296Z,24.60
2018-09-29T01:18:58.278Z,22.00
2018-09-29T01:20:01.298Z,22.00
2018-09-29T01:21:08.202Z,22.10
2018-09-29T01:22:11.445Z,22.00
2018-09-29T01:23:14.488Z,22.00
2018-09-29T01:24:17.529Z,22.00
2018-09-29T01:25:20.622Z,22.00
2018-09-29T01:26:23.626Z,22.00
2018-09-29T01:27:26.668Z,22.00
2018-09-29T01:28:29.721Z,22.00
2018-09-29T01:29:32.789Z,22.00
2018-09-29T01:30:36.026Z,22.00
2018-09-29T01:31:39.020Z,22.00
2018-09-29T01:32:42.083Z,22.00
2018-09-29T01:33:45.161Z,22.00
2018-09-29T01:34:48.215Z,22.00
2018-09-29T01:35:51.246Z,22.00
2018-09-29T01:36:54.277Z,22.00
2018-09-29T01:37:57.275Z,22.00
2018-09-29T01:39:00.393Z,22.00
2018-09-29T01:40:03.337Z,22.00
2018-09-29T01:41:06.357Z,22.00
2018-09-29T01:42:09.476Z,22.00
2018-09-29T01:43:12.542Z,22.00
2018-09-29T01:44:15.615Z,22.00
2018-09-29T01:45:18.631Z,22.00
2018-09-29T01:46:21.623Z,22.00
2018-09-29T01:47:24.670Z,22.00
2018-09-29T01:48:27.761Z,22.00
2018-09-29T01:49:30.801Z,22.00
2018-09-29T01:50:33.778Z,22.00
2018-09-29T01:51:36.823Z,22.00
2018-09-29T01:52:39.846Z,22.00
2018-09-29T01:53:42.851Z,22.00
2018-09-29T01:54:45.862Z,22.00
2018-09-29T01:55:48.889Z,21.90
2018-09-29T01:56:51.946Z,22.00
2018-09-29T01:57:54.981Z,21.90
2018-09-29T01:58:58.130Z,21.90
2018-09-29T02:00:01.097Z,21.90
2018-09-29T02:01:04.118Z,21.90
2018-09-29T02:02:07.112Z,21.90
2018-09-29T02:03:10.702Z,21.90
2018-09-29T02:04:13.724Z,21.90
2018-09-29T02:05:16.740Z,21.90
2018-09-29T02:06:19.776Z,21.90
2018-09-29T02:07:22.891Z,21.90
2018-09-29T02:08:25.915Z,22.00
2018-09-29T02:09:28.906Z,21.90
2018-09-29T02:10:31.994Z,21.90
2018-09-29T02:11:35.070Z,21.90
2018-09-29T02:12:38.147Z,21.90
2018-09-29T02:13:41.155Z,21.90
2018-09-29T02:14:44.280Z,21.90
2018-09-29T02:15:47.293Z,21.90
2018-09-29T02:16:50.278Z,21.90
2018-09-29T02:17:53.288Z,22.00
2018-09-29T02:18:56.335Z,21.90
2018-09-29T02:19:59.393Z,21.90
2018-09-29T02:21:02.391Z,21.90
2018-09-29T02:22:05.415Z,21.90
2018-09-29T02:23:08.503Z,21.90
2018-09-29T02:24:11.525Z,21.90
2018-09-29T02:25:14.555Z,21.90
2018-09-29T02:26:17.607Z,21.80
2018-09-29T02:27:20.707Z,21.90
2018-09-29T02:28:23.792Z,21.90
2018-09-29T02:29:26.796Z,21.90
2018-09-29T02:30:29.863Z,21.90
2018-09-29T02:31:32.892Z,21.90
2018-09-29T02:32:35.913Z,21.90
2018-09-29T02:33:38.997Z,21.90
2018-09-29T02:34:42.096Z,21.90
2018-09-29T02:35:45.131Z,23.30
2018-09-29T02:36:48.146Z,21.90
2018-09-29T02:37:51.190Z,21.90
2018-09-29T02:38:54.241Z,21.90
2018-09-29T02:39:57.291Z,21.90
2018-09-29T02:41:00.305Z,21.80
2018-09-29T02:42:03.312Z,21.80
2018-09-29T02:43:06.470Z,21.80
2018-09-29T02:44:09.964Z,21.80
2018-09-29T02:45:12.964Z,21.90
2018-09-29T02:46:15.983Z,21.80
2018-09-29T02:47:19.065Z,21.80
2018-09-29T02:48:22.097Z,21.80
2018-09-29T02:49:25.258Z,21.80
2018-09-29T02:50:28.271Z,21.80
2018-09-29T02:51:31.369Z,21.80
2018-09-29T02:52:34.552Z,21.80
2018-09-29T02:53:37.638Z,21.80
2018-09-29T02:54:40.718Z,21.80
2018-09-29T02:55:43.739Z,21.80
2018-09-29T02:56:46.819Z,21.80
2018-09-29T02:57:49.870Z,21.80
2018-09-29T02:58:52.931Z,21.80
2018-09-29T02:59:56.062Z,21.80
2018-09-29T03:00:59.106Z,21.80
2018-09-29T03:02:02.158Z,21.80
2018-09-29T03:03:05.139Z,21.80
2018-09-29T03:04:08.154Z,21.80
2018-09-29T03:05:11.236Z,21.80
2018-09-29T03:06:14.410Z,21.80
2018-09-29T03:07:17.613Z,19.50
2018-09-29T03:08:20.555Z,21.80
2018-09-29T03:09:23.511Z,21.80
2018-09-29T03:10:26.619Z,21.80
2018-09-29T03:11:29.686Z,21.70
2018-09-29T03:12:32.721Z,21.80
2018-09-29T03:13:35.751Z,21.80
2018-09-29T03:14:38.875Z,21.80
2018-09-29T03:15:41.926Z,21.80
2018-09-29T03:16:44.935Z,21.70
2018-09-29T03:17:48.011Z,21.80
2018-09-29T03:18:51.151Z,21.80
2018-09-29T03:19:54.204Z,21.80
2018-09-29T03:20:57.219Z,21.80
2018-09-29T03:22:00.364Z,21.80
2018-09-29T03:23:03.439Z,21.80
2018-09-29T03:24:06.435Z,21.80
2018-09-29T03:25:09.452Z,21.70
2018-09-29T03:26:12.568Z,21.80
2018-09-29T03:27:15.636Z,21.70
2018-09-29T03:28:18.759Z,21.60
2018-09-29T03:29:21.793Z,21.70
2018-09-29T03:30:24.831Z,21.70
2018-09-29T03:31:27.907Z,21.70
2018-09-29T03:32:30.937Z,21.70
2018-09-29T03:33:34.024Z,21.70
2018-09-29T03:34:37.134Z,21.70
2018-09-29T03:35:40.119Z,21.70
2018-09-29T03:36:43.162Z,21.70
2018-09-29T03:37:46.238Z,21.70
2018-09-29T03:38:49.283Z,21.70
2018-09-29T03:39:52.299Z,21.70
2018-09-29T03:40:55.298Z,21.70
2018-09-29T03:41:58.349Z,21.70
2018-09-29T03:43:01.421Z,21.70
2018-09-29T03:44:04.506Z,21.70
2018-09-29T03:45:07.526Z,21.70
2018-09-29T03:46:10.588Z,21.70
2018-09-29T03:47:13.635Z,21.70
2018-09-29T03:48:16.878Z,21.70
2018-09-29T03:49:19.880Z,21.70
2018-09-29T03:50:22.918Z,21.70
2018-09-29T03:51:25.946Z,21.70
2018-09-29T03:52:29.015Z,21.70
2018-09-29T03:53:32.133Z,21.70
2018-09-29T03:54:35.224Z,21.70
2018-09-29T03:55:38.307Z,21.70
2018-09-29T03:56:41.436Z,21.70
2018-09-29T03:57:44.474Z,21.70
2018-09-29T03:58:47.471Z,21.70
2018-09-29T03:59:50.569Z,21.70
2018-09-29T04:00:53.567Z,21.70
2018-09-29T04:01:56.648Z,21.70
2018-09-29T04:02:59.695Z,21.70
2018-09-29T04:04:02.759Z,21.70
2018-09-29T04:05:05.885Z,21.70
2018-09-29T04:06:08.893Z,21.70
2018-09-29T04:07:12.039Z,21.70
2018-09-29T04:08:15.033Z,21.70
2018-09-29T04:09:18.043Z,21.70
2018-09-29T04:10:21.118Z,21.70
2018-09-29T04:11:24.095Z,21.70
2018-09-29T04:12:27.196Z,21.70
2018-09-29T04:13:30.300Z,21.70
2018-09-29T04:14:33.327Z,21.70
2018-09-29T04:15:36.302Z,21.70
2018-09-29T04:16:39.276Z,21.60
2018-09-29T04:17:42.405Z,21.60
2018-09-29T04:18:45.526Z,21.60
2018-09-29T04:19:48.620Z,21.60
2018-09-29T04:20:51.639Z,21.60
2018-09-29T04:21:54.675Z,21.60
2018-09-29T04:22:57.686Z,21.60
2018-09-29T04:24:00.729Z,21.60
2018-09-29T04:25:03.751Z,21.60
2018-09-29T04:26:06.831Z,21.60
2018-09-29T04:27:09.926Z,21.60
2018-09-29T04:28:13.008Z,21.60
2018-09-29T04:29:16.888Z,21.60
2018-09-29T04:30:19.933Z,21.60
2018-09-29T04:31:23.151Z,21.60
2018-09-29T04:32:26.286Z,21.60
2018-09-29T04:33:29.372Z,21.60
2018-09-29T04:34:32.399Z,21.60
2018-09-29T04:35:35.447Z,21.60
2018-09-29T04:36:38.651Z,21.60
2018-09-29T04:37:41.679Z,21.60
2018-09-29T04:38:44.778Z,21.60
2018-09-29T04:39:47.770Z,21.60
2018-09-29T04:40:50.830Z,21.60
2018-09-29T04:41:53.867Z,21.60
2018-09-29T04:42:56.968Z,21.60
2018-09-29T04:43:59.939Z,21.60
2018-09-29T04:45:02.906Z,21.60
2018-09-29T04:46:06.000Z,21.60
2018-09-29T04:47:09.084Z,21.60
2018-09-29T04:48:12.095Z,21.60
2018-09-29T04:49:15.174Z,21.60
2018-09-29T04:50:18.387Z,21.60
2018-09-29T04:51:21.421Z,21.60
2018-09-29T04:52:24.446Z,21.60
2018-09-29T04:53:27.469Z,21.60
2018-09-29T04:54:30.429Z,21.60
2018-09-29T04:55:33.410Z,21.60
2018-09-29T04:56:36.463Z,21.60
2018-09-29T04:57:39.542Z,21.60
2018-09-29T04:58:42.517Z,21.60
2018-09-29T04:59:45.528Z,21.60
2018-09-29T05:00:48.637Z,21.50
2018-09-29T05:01:51.635Z,21.50
2018-09-29T05:02:54.633Z,21.60
2018-09-29T05:03:57.639Z,21.60
2018-09-29T05:05:00.651Z,21.60
2018-09-29T05:06:03.703Z,21.60
2018-09-29T05:07:06.730Z,21.60
2018-09-29T05:08:09.701Z,21.60
2018-09-29T05:09:12.763Z,22.10
2018-09-29T05:10:15.787Z,21.60
2018-09-29T05:11:18.990Z,21.50
2018-09-29T05:12:21.988Z,21.60
2018-09-29T05:13:25.078Z,21.50
2018-09-29T05:14:28.155Z,21.50
2018-09-29T05:15:31.131Z,21.50
2018-09-29T05:16:34.157Z,21.50
2018-09-29T05:17:37.185Z,22.50
2018-09-29T05:18:40.223Z,21.50
2018-09-29T05:19:43.220Z,21.50
2018-09-29T05:20:46.258Z,21.50
2018-09-29T05:21:49.275Z,21.50
2018-09-29T05:22:52.467Z,21.50
2018-09-29T05:23:55.486Z,21.50
2018-09-29T05:24:58.448Z,22.50
2018-09-29T05:26:01.553Z,21.50
2018-09-29T05:27:04.570Z,21.50
2018-09-29T05:28:07.621Z,21.50
2018-09-29T05:29:10.649Z,21.50
2018-09-29T05:30:13.667Z,21.50
2018-09-29T05:31:16.658Z,21.50
2018-09-29T05:32:19.650Z,21.50
2018-09-29T05:33:22.667Z,21.60
2018-09-29T05:34:25.677Z,21.50
2018-09-29T05:35:28.699Z,21.50
2018-09-29T05:36:32.041Z,21.50
2018-09-29T05:37:35.130Z,21.50
2018-09-29T05:38:38.204Z,21.50
2018-09-29T05:39:41.256Z,21.50
2018-09-29T05:40:44.267Z,21.50
2018-09-29T05:41:47.250Z,21.50
2018-09-29T05:42:50.251Z,21.50
2018-09-29T05:43:53.238Z,21.40
2018-09-29T05:44:56.206Z,21.50
2018-09-29T05:45:59.270Z,21.50
2018-09-29T05:47:02.255Z,21.50
2018-09-29T05:48:05.300Z,21.50
2018-09-29T05:49:08.288Z,21.50
2018-09-29T05:50:11.277Z,21.50
2018-09-29T05:51:14.269Z,21.50
2018-09-29T05:52:17.302Z,21.50
2018-09-29T05:53:20.318Z,21.50
2018-09-29T05:54:23.283Z,21.50
2018-09-29T05:55:26.339Z,21.40
2018-09-29T05:56:29.374Z,21.50
2018-09-29T05:57:32.403Z,21.50
2018-09-29T05:58:35.478Z,21.50
2018-09-29T05:59:38.485Z,21.50
2018-09-29T06:00:41.590Z,21.40
2018-09-29T06:01:44.573Z,21.50
2018-09-29T06:02:47.654Z,21.50
2018-09-29T06:03:50.712Z,21.50
2018-09-29T06:04:53.750Z,21.50
2018-09-29T06:05:56.836Z,21.50
2018-09-29T06:06:59.832Z,21.50
2018-09-29T06:08:02.744Z,21.50
2018-09-29T06:09:07.686Z,21.50
2018-09-29T06:10:10.717Z,21.50
2018-09-29T06:11:13.798Z,21.50
2018-09-29T06:12:16.806Z,21.50
2018-09-29T06:13:19.898Z,21.50
2018-09-29T06:14:22.943Z,21.40
2018-09-29T06:15:25.953Z,21.50
2018-09-29T06:16:28.955Z,21.50
2018-09-29T06:17:31.946Z,21.40
2018-09-29T06:18:34.986Z,21.40
2018-09-29T06:19:38.001Z,21.40
2018-09-29T06:20:40.987Z,21.40
2018-09-29T06:21:43.992Z,21.40
2018-09-29T06:22:46.979Z,21.40
2018-09-29T06:23:50.055Z,21.40
2018-09-29T06:24:53.106Z,21.40
2018-09-29T06:25:56.197Z,21.40
2018-09-29T06:26:59.152Z,21.50
2018-09-29T06:28:02.174Z,21.40
2018-09-29T06:29:05.132Z,21.40
2018-09-29T06:30:08.271Z,21.40
2018-09-29T06:31:11.283Z,21.40
2018-09-29T06:32:14.286Z,21.40
2018-09-29T06:33:17.286Z,21.40
2018-09-29T06:34:20.388Z,21.40
2018-09-29T06:35:23.357Z,21.30
2018-09-29T06:36:26.359Z,21.30
2018-09-29T06:37:29.379Z,21.20
2018-09-29T06:38:32.372Z,21.20
2018-09-29T06:39:35.410Z,21.20
2018-09-29T06:40:38.852Z,21.10
2018-09-29T06:41:41.762Z,21.10
2018-09-29T06:42:44.779Z,21.00
2018-09-29T06:43:47.777Z,20.90
2018-09-29T06:44:50.758Z,20.90
2018-09-29T06:45:53.903Z,20.90
2018-09-29T06:46:56.881Z,20.80
2018-09-29T06:47:59.901Z,20.80
2018-09-29T06:49:02.987Z,20.70
2018-09-29T06:50:05.991Z,20.70
2018-09-29T06:51:09.016Z,20.60
2018-09-29T06:52:12.009Z,20.60
2018-09-29T06:53:15.007Z,20.60
2018-09-29T06:54:18.003Z,20.60
2018-09-29T06:55:20.975Z,20.50
2018-09-29T06:56:24.099Z,20.50
2018-09-29T06:57:27.150Z,20.50
2018-09-29T06:58:30.141Z,20.40
2018-09-29T06:59:33.194Z,20.40
2018-09-29T07:00:36.269Z,20.40
2018-09-29T07:01:39.242Z,20.40
2018-09-29T07:02:42.311Z,20.40
2018-09-29T07:03:45.333Z,20.40
2018-09-29T07:04:48.316Z,20.40
2018-09-29T07:05:51.339Z,20.40
2018-09-29T07:06:54.297Z,20.40
2018-09-29T07:07:57.302Z,20.40
2018-09-29T07:09:00.306Z,20.40
2018-09-29T07:10:03.348Z,20.40
2018-09-29T07:11:06.509Z,20.40
2018-09-29T07:12:09.639Z,20.40
2018-09-29T07:13:12.663Z,20.40
2018-09-29T07:14:15.692Z,21.30
2018-09-29T07:15:18.668Z,20.40
2018-09-29T07:16:21.667Z,20.40
2018-09-29T07:17:24.672Z,20.40
2018-09-29T07:18:27.646Z,20.40
2018-09-29T07:19:30.799Z,20.40
2018-09-29T07:20:33.931Z,20.50
2018-09-29T07:21:37.033Z,20.50
2018-09-29T07:22:40.102Z,20.50
2018-09-29T07:23:43.094Z,20.50
2018-09-29T07:24:46.066Z,20.50
2018-09-29T07:25:49.139Z,20.50
2018-09-29T07:26:52.192Z,20.50
2018-09-29T07:27:55.211Z,20.50
2018-09-29T07:28:58.279Z,20.50
2018-09-29T07:30:01.245Z,20.50
2018-09-29T07:31:04.255Z,20.40
2018-09-29T07:32:07.322Z,20.40
2018-09-29T07:33:10.371Z,20.40
2018-09-29T07:34:13.368Z,20.40
2018-09-29T07:35:16.363Z,20.40
2018-09-29T07:36:19.396Z,20.40
2018-09-29T07:37:22.427Z,20.40
2018-09-29T07:38:25.394Z,20.40
2018-09-29T07:39:28.404Z,20.40
2018-09-29T07:40:31.580Z,20.30
2018-09-29T07:41:34.612Z,20.30
2018-09-29T07:42:37.622Z,20.30
2018-09-29T07:43:40.619Z,20.30
2018-09-29T07:44:43.665Z,20.30
2018-09-29T07:45:46.650Z,20.30
2018-09-29T07:46:49.781Z,20.30
2018-09-29T07:47:52.815Z,20.30
2018-09-29T07:48:55.916Z,20.20
2018-09-29T07:49:58.889Z,20.20
2018-09-29T07:51:01.879Z,20.30
2018-09-29T07:52:04.947Z,20.30
2018-09-29T07:53:07.977Z,20.30
2018-09-29T07:54:11.010Z,22.30
2018-09-29T07:55:14.067Z,20.40
2018-09-29T07:56:17.067Z,20.40
2018-09-29T07:57:20.167Z,20.40
2018-09-29T07:58:23.219Z,20.40
2018-09-29T07:59:26.627Z,20.40
2018-09-29T08:00:29.626Z,20.40
2018-09-29T08:01:32.698Z,20.50
2018-09-29T08:02:35.669Z,20.50
2018-09-29T08:03:38.693Z,20.50
2018-09-29T08:04:41.731Z,20.50
2018-09-29T08:05:44.751Z,20.60
2018-09-29T08:06:47.811Z,20.60
2018-09-29T08:07:50.847Z,20.60
2018-09-29T08:08:53.871Z,20.70
2018-09-29T08:09:56.906Z,20.80
2018-09-29T08:11:00.036Z,20.80
2018-09-29T08:12:03.217Z,20.80
2018-09-29T08:13:06.412Z,20.80
2018-09-29T08:14:09.387Z,20.90
2018-09-29T08:15:12.435Z,20.90
2018-09-29T08:16:15.594Z,20.90
2018-09-29T08:17:18.611Z,21.00
2018-09-29T08:18:21.610Z,21.00
2018-09-29T08:19:25.643Z,21.00
2018-09-29T08:20:28.688Z,21.00
2018-09-29T08:21:31.666Z,21.00
2018-09-29T08:22:34.669Z,21.10
2018-09-29T08:23:37.911Z,21.10
2018-09-29T08:24:40.954Z,21.10
2018-09-29T08:25:44.013Z,21.10
2018-09-29T08:26:47.055Z,21.10
2018-09-29T08:27:50.097Z,21.10
2018-09-29T08:28:53.184Z,21.10
2018-09-29T08:29:56.223Z,21.10
2018-09-29T08:30:59.227Z,21.10
2018-09-29T08:32:02.240Z,21.10
2018-09-29T08:33:05.758Z,21.10
2018-09-29T08:34:08.764Z,21.10
2018-09-29T08:35:11.750Z,21.10
2018-09-29T08:36:14.787Z,21.10
2018-09-29T08:37:18.311Z,21.10
2018-09-29T08:38:21.336Z,21.10
2018-09-29T08:39:24.333Z,21.10
2018-09-29T08:40:27.363Z,21.10
2018-09-29T08:41:30.501Z,21.10
2018-09-29T08:42:33.774Z,21.10
2018-09-29T08:43:36.922Z,21.00
2018-09-29T08:44:39.997Z,21.10
2018-09-29T08:45:42.985Z,21.10
2018-09-29T08:46:45.989Z,21.10
2018-09-29T08:47:49.014Z,21.10
2018-09-29T08:48:52.066Z,21.10
2018-09-29T08:49:55.143Z,21.20
2018-09-29T08:50:58.210Z,21.20
2018-09-29T08:52:01.218Z,21.20
2018-09-29T08:53:04.279Z,21.20
2018-09-29T08:54:07.223Z,21.30
2018-09-29T08:55:10.322Z,21.30
2018-09-29T08:56:13.362Z,21.40
2018-09-29T08:57:16.406Z,21.40
2018-09-29T08:58:19.414Z,21.40
2018-09-29T08:59:22.426Z,21.50
2018-09-29T09:00:25.391Z,21.50
2018-09-29T09:01:28.407Z,21.60
2018-09-29T09:02:31.392Z,21.60
2018-09-29T09:03:34.809Z,21.60
2018-09-29T09:04:37.842Z,21.60
2018-09-29T09:05:40.835Z,21.60
2018-09-29T09:06:43.851Z,21.60
2018-09-29T09:07:46.847Z,21.60
2018-09-29T09:08:49.875Z,21.60
2018-09-29T09:09:52.902Z,21.60
2018-09-29T09:10:56.037Z,21.60
2018-09-29T09:11:58.994Z,21.60
2018-09-29T09:13:01.959Z,21.50
2018-09-29T09:14:05.042Z,21.60
2018-09-29T09:15:08.050Z,21.50
2018-09-29T09:16:11.054Z,21.60
2018-09-29T09:17:14.137Z,21.50
2018-09-29T09:18:17.157Z,21.50
2018-09-29T09:19:20.173Z,21.50
2018-09-29T09:20:23.227Z,21.50
2018-09-29T09:21:26.246Z,21.50
2018-09-29T09:22:29.292Z,21.60
2018-09-29T09:23:32.292Z,21.60
2018-09-29T09:24:35.266Z,21.60
2018-09-29T09:25:38.288Z,21.60
2018-09-29T09:26:41.275Z,21.60
2018-09-29T09:27:44.446Z,21.60
2018-09-29T09:28:47.472Z,21.60
2018-09-29T09:29:50.486Z,21.60
2018-09-29T09:30:53.426Z,21.60
2018-09-29T09:31:56.435Z,21.60
2018-09-29T09:32:59.450Z,21.70
2018-09-29T09:34:02.470Z,21.70
2018-09-29T09:35:05.462Z,21.60
2018-09-29T09:36:08.446Z,21.60
2018-09-29T09:37:11.467Z,21.60
2018-09-29T09:38:14.489Z,21.60
2018-09-29T09:39:17.493Z,21.50
2018-09-29T09:40:21.530Z,21.50
2018-09-29T09:41:24.578Z,21.50
2018-09-29T09:42:27.569Z,21.50
2018-09-29T09:43:30.549Z,21.40
2018-09-29T09:44:33.594Z,21.40
2018-09-29T09:45:36.576Z,21.40
2018-09-29T09:46:39.593Z,21.40
2018-09-29T09:47:42.594Z,21.40
2018-09-29T09:48:45.600Z,21.40
2018-09-29T09:49:48.626Z,21.30
2018-09-29T09:50:51.573Z,21.30
2018-09-29T09:51:54.595Z,21.30
2018-09-29T09:52:57.594Z,21.30
2018-09-29T09:54:00.666Z,21.30
2018-09-29T09:55:03.638Z,21.30
2018-09-29T09:56:06.970Z,21.30
2018-09-29T09:57:09.946Z,21.30
2018-09-29T09:58:12.972Z,21.30
2018-09-29T09:59:15.945Z,21.30
2018-09-29T10:00:18.995Z,21.30
2018-09-29T10:01:27.554Z,21.30
2018-09-29T10:02:36.101Z,21.30
2018-09-29T10:03:39.129Z,21.30
2018-09-29T10:04:42.190Z,21.30
2018-09-29T10:05:45.171Z,21.30
2018-09-29T10:06:48.187Z,21.30
2018-09-29T10:07:51.201Z,21.30
2018-09-29T10:08:54.170Z,21.30
2018-09-29T10:09:57.208Z,21.30
2018-09-29T10:11:00.191Z,21.30
2018-09-29T10:12:03.240Z,21.30
2018-09-29T10:13:06.208Z,21.30
2018-09-29T10:14:09.214Z,21.30
2018-09-29T10:15:12.275Z,21.30
2018-09-29T10:16:15.315Z,21.30
2018-09-29T10:17:18.377Z,21.30
2018-09-29T10:18:21.355Z,21.30
2018-09-29T10:19:24.387Z,21.20
2018-09-29T10:20:27.446Z,21.20
2018-09-29T10:21:30.453Z,21.20
2018-09-29T10:22:33.501Z,21.20
2018-09-29T10:23:36.580Z,21.20
2018-09-29T10:24:39.581Z,21.20
2018-09-29T10:25:42.648Z,21.20
2018-09-29T10:26:45.638Z,21.20
2018-09-29T10:27:48.705Z,21.20
2018-09-29T10:28:51.643Z,21.10
2018-09-29T10:29:54.691Z,21.10
2018-09-29T10:30:57.694Z,21.10
2018-09-29T10:32:00.790Z,21.10
2018-09-29T10:33:03.785Z,21.10
2018-09-29T10:34:06.943Z,21.10
2018-09-29T10:35:09.969Z,21.10
2018-09-29T10:36:13.016Z,21.10
2018-09-29T10:37:15.996Z,21.10
2018-09-29T10:38:19.055Z,21.20
2018-09-29T10:39:22.019Z,21.20
2018-09-29T10:40:25.070Z,21.20
2018-09-29T10:41:28.142Z,21.20
2018-09-29T10:42:31.119Z,21.20
2018-09-29T10:43:34.189Z,21.20
2018-09-29T10:44:37.149Z,21.20
2018-09-29T10:45:40.154Z,21.20
2018-09-29T10:46:43.224Z,21.20
2018-09-29T10:47:46.187Z,21.20
2018-09-29T10:48:49.199Z,21.20
2018-09-29T10:49:52.205Z,21.20
2018-09-29T10:50:55.246Z,21.20
2018-09-29T10:51:58.376Z,21.20
2018-09-29T10:53:01.376Z,21.20
2018-09-29T10:54:04.346Z,21.20
2018-09-29T10:55:07.340Z,21.20
2018-09-29T10:56:10.367Z,21.20
2018-09-29T10:57:13.350Z,21.20
2018-09-29T10:58:16.351Z,21.20
2018-09-29T10:59:19.364Z,21.20
2018-09-29T11:00:22.397Z,21.30
2018-09-29T11:01:25.403Z,21.30
2018-09-29T11:02:28.555Z,21.30
2018-09-29T11:03:31.695Z,21.30
2018-09-29T11:04:34.982Z,21.30
2018-09-29T11:05:38.041Z,21.30
2018-09-29T11:06:41.091Z,21.30
2018-09-29T11:07:44.163Z,21.30
2018-09-29T11:08:47.172Z,21.30
2018-09-29T11:09:50.203Z,21.30
2018-09-29T11:10:53.359Z,21.20
2018-09-29T11:11:56.380Z,21.20
2018-09-29T11:12:59.406Z,21.20
2018-09-29T11:14:02.410Z,21.20
2018-09-29T11:15:05.415Z,21.20
2018-09-29T11:16:08.397Z,21.20
2018-09-29T11:17:11.436Z,21.10
2018-09-29T11:18:14.473Z,21.10
2018-09-29T11:19:17.457Z,21.10
2018-09-29T11:20:20.510Z,21.10
2018-09-29T11:21:23.525Z,21.10
2018-09-29T11:22:26.638Z,21.00
2018-09-29T11:23:29.668Z,21.10
2018-09-29T11:24:32.654Z,21.00
2018-09-29T11:25:35.649Z,21.00
2018-09-29T11:26:38.809Z,21.10
2018-09-29T11:27:41.846Z,21.10
2018-09-29T11:28:44.842Z,21.10
2018-09-29T11:29:47.849Z,21.10
2018-09-29T11:30:51.143Z,21.10
2018-09-29T11:31:54.207Z,21.10
2018-09-29T11:32:57.226Z,21.10
2018-09-29T11:34:00.238Z,21.10
2018-09-29T11:35:03.214Z,21.10
2018-09-29T11:36:06.255Z,21.10
2018-09-29T11:37:09.283Z,21.10
2018-09-29T11:38:12.287Z,21.20
2018-09-29T11:39:15.364Z,21.20
2018-09-29T11:40:18.302Z,21.20
2018-09-29T11:41:21.338Z,21.20
2018-09-29T11:42:24.387Z,21.20
2018-09-29T11:43:27.345Z,21.20
2018-09-29T11:44:30.475Z,21.20
2018-09-29T11:45:33.622Z,21.20
2018-09-29T11:46:36.585Z,21.20
2018-09-29T11:47:39.584Z,21.20
2018-09-29T11:48:42.618Z,21.20
2018-09-29T11:49:45.618Z,21.20
2018-09-29T11:50:48.642Z,21.20
2018-09-29T11:51:51.690Z,21.20
2018-09-29T11:52:54.707Z,21.20
2018-09-29T11:53:58.026Z,21.10
2018-09-29T11:55:01.083Z,21.10
2018-09-29T11:56:04.105Z,21.10
2018-09-29T11:57:07.112Z,21.10
2018-09-29T11:58:10.167Z,21.10
2018-09-29T11:59:13.154Z,21.00
2018-09-29T12:00:16.151Z,21.00
2018-09-29T12:01:19.160Z,21.00
2018-09-29T12:02:22.255Z,21.00
2018-09-29T12:03:25.171Z,21.00
2018-09-29T12:04:28.206Z,21.00
2018-09-29T12:05:31.233Z,20.90
2018-09-29T12:06:34.258Z,20.90
2018-09-29T12:07:37.335Z,21.00
2018-09-29T12:08:40.333Z,20.90
2018-09-29T12:09:43.313Z,20.90
2018-09-29T12:10:46.336Z,20.90
2018-09-29T12:11:49.276Z,21.00
2018-09-29T12:12:52.263Z,21.00
2018-09-29T12:13:55.294Z,21.00
2018-09-29T12:14:58.215Z,20.90
2018-09-29T12:16:01.215Z,20.90
2018-09-29T12:17:04.251Z,21.00
2018-09-29T12:18:07.244Z,21.00
2018-09-29T12:19:10.295Z,21.00
2018-09-29T12:20:13.280Z,21.00
2018-09-29T12:21:16.273Z,21.00
2018-09-29T12:22:19.332Z,21.00
2018-09-29T12:23:22.320Z,21.00
2018-09-29T12:24:25.331Z,21.00
2018-09-29T12:25:28.365Z,21.00
2018-09-29T12:26:31.346Z,21.00
2018-09-29T12:27:34.358Z,21.00
2018-09-29T12:28:37.487Z,21.00
2018-09-29T12:29:40.533Z,21.00
2018-09-29T12:30:43.504Z,21.10
2018-09-29T12:31:46.515Z,21.10
2018-09-29T12:32:49.622Z,21.10
2018-09-29T12:33:53.010Z,21.10
2018-09-29T12:34:56.014Z,21.10
2018-09-29T12:35:59.044Z,21.10
2018-09-29T12:37:02.225Z,21.10
2018-09-29T12:38:05.060Z,20.70
2018-09-29T12:39:08.867Z,21.10
2018-09-29T12:40:11.995Z,21.10
2018-09-29T12:41:14.970Z,21.20
2018-09-29T12:42:18.130Z,21.10
2018-09-29T12:43:21.264Z,21.10
2018-09-29T12:44:24.349Z,21.10
2018-09-29T12:45:27.327Z,21.10
2018-09-29T12:46:30.359Z,21.10
2018-09-29T12:47:33.404Z,21.10
2018-09-29T12:48:36.414Z,21.10
2018-09-29T12:49:39.416Z,21.10
2018-09-29T12:50:42.472Z,21.10
2018-09-29T12:51:45.448Z,21.10
2018-09-29T12:52:48.430Z,21.20
2018-09-29T12:53:51.409Z,21.20
2018-09-29T12:54:54.531Z,21.20
2018-09-29T12:55:57.555Z,21.20
2018-09-29T12:57:00.510Z,21.20
2018-09-29T12:58:03.535Z,21.20
2018-09-29T12:59:06.627Z,21.20
2018-09-29T13:00:09.643Z,21.20
2018-09-29T13:01:12.676Z,21.20
2018-09-29T13:02:15.699Z,21.20
2018-09-29T13:03:18.786Z,21.20
2018-09-29T13:04:21.839Z,21.20
2018-09-29T13:05:24.885Z,21.20
2018-09-29T13:06:27.847Z,21.20
2018-09-29T13:07:30.884Z,21.20
2018-09-29T13:08:33.885Z,21.20
2018-09-29T13:09:36.951Z,21.20
2018-09-29T13:10:39.935Z,21.20
2018-09-29T13:11:43.025Z,21.20
2018-09-29T13:12:46.041Z,21.20
2018-09-29T13:13:49.040Z,21.20
2018-09-29T13:14:52.103Z,21.20
2018-09-29T13:15:55.095Z,21.20
2018-09-29T13:16:58.157Z,21.20
2018-09-29T13:18:01.128Z,21.20
2018-09-29T13:19:04.154Z,21.20
2018-09-29T13:20:07.341Z,21.30
2018-09-29T13:21:10.364Z,21.30
2018-09-29T13:22:13.363Z,21.20
2018-09-29T13:23:16.363Z,21.20
2018-09-29T13:24:19.430Z,21.20
2018-09-29T13:25:22.514Z,21.20
2018-09-29T13:26:25.654Z,21.20
2018-09-29T13:27:28.745Z,21.20
2018-09-29T13:28:31.775Z,21.20
2018-09-29T13:29:34.837Z,21.20
2018-09-29T13:30:37.815Z,21.20
2018-09-29T13:31:40.821Z,21.20